Rittman, Ohio
Current Conditions -  °F | °C
As of 12:56 AM on Thursday 27 Nov 2014 (Local Time) from KBJJ Reporting Station
Haze Haze  
Wind Chill: 22°   Ceiling: Unl
Heat Index: 29°   Visibility: 5mi
Dew Point: 27°   Wind: 7mph
Humidity: 92%   Direction: 290°WNW
Pressure: 30.02"   Gusts: NA
Location:  40.97°N, 81.78°W
Report Text: KBJJ 270556Z AUTO 29006KT 5SM BR FEW120 M02/M03 A3002 RMK AO2 SLP177 T10171028 10006 21017 58002 TSNO
Loading
Personal Weather Stations






























Interactive Weather Map New forecast layout! Learn more

10-Day Weather Forecast

Advertisements
Track Severe Weather on mobile